sensor_id;sensor_type;location;lat;lon;timestamp;P1;durP1;ratioP1;P2;durP2;ratioP2
4112;SDS011;2070;51.042;7.056;2023-02-19T00:01:05;9.63;;;5.77;;
4112;SDS011;2070;51.042;7.056;2023-02-19T00:03:30;7.23;;;5.67;;
4112;SDS011;2070;51.042;7.056;2023-02-19T00:05:56;8.57;;;6.07;;
4112;SDS011;2070;51.042;7.056;2023-02-19T00:08:21;8.10;;;6.27;;
4112;SDS011;2070;51.042;7.056;2023-02-19T00:10:46;9.77;;;5.97;;
4112;SDS011;2070;51.042;7.056;2023-02-19T00:13:11;9.00;;;7.17;;
4112;SDS011;2070;51.042;7.056;2023-02-19T00:15:37;9.37;;;7.50;;
4112;SDS011;2070;51.042;7.056;2023-02-19T00:18:02;11.30;;;6.37;;
4112;SDS011;2070;51.042;7.056;2023-02-19T00:20:27;8.40;;;6.37;;
4112;SDS011;2070;51.042;7.056;2023-02-19T00:22:52;6.60;;;6.00;;
4112;SDS011;2070;51.042;7.056;2023-02-19T00:25:17;12.33;;;8.20;;
4112;SDS011;2070;51.042;7.056;2023-02-19T00:27:43;8.50;;;6.17;;
4112;SDS011;2070;51.042;7.056;2023-02-19T00:30:08;10.40;;;6.40;;
4112;SDS011;2070;51.042;7.056;2023-02-19T00:32:33;7.60;;;5.50;;
4112;SDS011;2070;51.042;7.056;2023-02-19T00:34:58;7.87;;;5.10;;
4112;SDS011;2070;51.042;7.056;2023-02-19T00:37:24;6.20;;;5.60;;
4112;SDS011;2070;51.042;7.056;2023-02-19T00:39:49;9.53;;;6.33;;
4112;SDS011;2070;51.042;7.056;2023-02-19T00:42:14;9.23;;;5.93;;
4112;SDS011;2070;51.042;7.056;2023-02-19T00:44:39;8.40;;;6.57;;
4112;SDS011;2070;51.042;7.056;2023-02-19T00:47:05;6.30;;;5.70;;
4112;SDS011;2070;51.042;7.056;2023-02-19T00:49:30;6.70;;;6.00;;
4112;SDS011;2070;51.042;7.056;2023-02-19T00:51:55;10.27;;;5.90;;
4112;SDS011;2070;51.042;7.056;2023-02-19T00:54:20;7.40;;;5.63;;
4112;SDS011;2070;51.042;7.056;2023-02-19T00:56:49;7.80;;;6.00;;
4112;SDS011;2070;51.042;7.056;2023-02-19T00:59:14;7.63;;;6.60;;
4112;SDS011;2070;51.042;7.056;2023-02-19T01:01:39;7.90;;;6.33;;
4112;SDS011;2070;51.042;7.056;2023-02-19T01:04:05;7.53;;;6.23;;
4112;SDS011;2070;51.042;7.056;2023-02-19T01:06:30;11.87;;;5.93;;
4112;SDS011;2070;51.042;7.056;2023-02-19T01:08:56;7.13;;;5.57;;
4112;SDS011;2070;51.042;7.056;2023-02-19T01:11:21;8.10;;;5.93;;
4112;SDS011;2070;51.042;7.056;2023-02-19T01:13:47;7.23;;;5.67;;
4112;SDS011;2070;51.042;7.056;2023-02-19T01:16:16;7.97;;;5.67;;
4112;SDS011;2070;51.042;7.056;2023-02-19T01:18:42;11.40;;;6.37;;
4112;SDS011;2070;51.042;7.056;2023-02-19T01:21:10;6.03;;;5.43;;
4112;SDS011;2070;51.042;7.056;2023-02-19T01:23:35;11.30;;;5.63;;
4112;SDS011;2070;51.042;7.056;2023-02-19T01:26:04;7.97;;;5.07;;
4112;SDS011;2070;51.042;7.056;2023-02-19T01:28:30;12.00;;;5.53;;
4112;SDS011;2070;51.042;7.056;2023-02-19T01:30:59;6.23;;;4.90;;
4112;SDS011;2070;51.042;7.056;2023-02-19T01:33:24;6.77;;;5.13;;
4112;SDS011;2070;51.042;7.056;2023-02-19T01:35:49;6.73;;;5.07;;
4112;SDS011;2070;51.042;7.056;2023-02-19T01:38:14;7.43;;;5.47;;
4112;SDS011;2070;51.042;7.056;2023-02-19T01:40:39;5.53;;;5.00;;
4112;SDS011;2070;51.042;7.056;2023-02-19T01:43:05;7.97;;;5.87;;
4112;SDS011;2070;51.042;7.056;2023-02-19T01:45:34;8.13;;;5.00;;
4112;SDS011;2070;51.042;7.056;2023-02-19T01:48:12;11.60;;;5.80;;
4112;SDS011;2070;51.042;7.056;2023-02-19T01:50:41;6.00;;;4.90;;
4112;SDS011;2070;51.042;7.056;2023-02-19T01:53:08;9.27;;;4.93;;
4112;SDS011;2070;51.042;7.056;2023-02-19T01:55:35;5.13;;;4.60;;
4112;SDS011;2070;51.042;7.056;2023-02-19T01:58:00;5.07;;;4.57;;
4112;SDS011;2070;51.042;7.056;2023-02-19T02:00:26;5.90;;;4.37;;
4112;SDS011;2070;51.042;7.056;2023-02-19T02:02:53;7.47;;;4.87;;
4112;SDS011;2070;51.042;7.056;2023-02-19T02:05:31;5.87;;;4.67;;
4112;SDS011;2070;51.042;7.056;2023-02-19T02:08:00;7.30;;;4.90;;
4112;SDS011;2070;51.042;7.056;2023-02-19T02:10:44;7.23;;;5.73;;
4112;SDS011;2070;51.042;7.056;2023-02-19T02:13:09;7.17;;;5.10;;
4112;SDS011;2070;51.042;7.056;2023-02-19T02:15:40;6.90;;;5.60;;
4112;SDS011;2070;51.042;7.056;2023-02-19T02:18:22;9.67;;;5.60;;
4112;SDS011;2070;51.042;7.056;2023-02-19T02:30:38;14.40;;;6.23;;
4112;SDS011;2070;51.042;7.056;2023-02-19T02:33:14;8.10;;;6.03;;
4112;SDS011;2070;51.042;7.056;2023-02-19T02:35:43;9.07;;;6.43;;
4112;SDS011;2070;51.042;7.056;2023-02-19T02:38:10;8.67;;;5.67;;
4112;SDS011;2070;51.042;7.056;2023-02-19T02:40:37;8.30;;;6.03;;
4112;SDS011;2070;51.042;7.056;2023-02-19T02:43:03;11.53;;;6.23;;
4112;SDS011;2070;51.042;7.056;2023-02-19T02:45:29;10.87;;;7.27;;
4112;SDS011;2070;51.042;7.056;2023-02-19T02:50:29;9.67;;;6.47;;
4112;SDS011;2070;51.042;7.056;2023-02-19T02:52:58;11.17;;;6.03;;
4112;SDS011;2070;51.042;7.056;2023-02-19T02:55:44;13.50;;;7.93;;
4112;SDS011;2070;51.042;7.056;2023-02-19T02:58:10;11.43;;;6.00;;
4112;SDS011;2070;51.042;7.056;2023-02-19T03:00:36;12.00;;;6.20;;
4112;SDS011;2070;51.042;7.056;2023-02-19T03:03:22;14.67;;;6.70;;
4112;SDS011;2070;51.042;7.056;2023-02-19T03:05:48;12.10;;;7.23;;
4112;SDS011;2070;51.042;7.056;2023-02-19T03:08:24;14.43;;;6.87;;
4112;SDS011;2070;51.042;7.056;2023-02-19T03:10:51;23.90;;;8.73;;
4112;SDS011;2070;51.042;7.056;2023-02-19T03:13:36;14.70;;;7.80;;
4112;SDS011;2070;51.042;7.056;2023-02-19T03:16:25;16.80;;;9.90;;
4112;SDS011;2070;51.042;7.056;2023-02-19T03:19:10;18.40;;;9.50;;
4112;SDS011;2070;51.042;7.056;2023-02-19T03:21:43;23.90;;;9.07;;
4112;SDS011;2070;51.042;7.056;2023-02-19T03:24:09;12.10;;;7.87;;
4112;SDS011;2070;51.042;7.056;2023-02-19T03:26:55;17.03;;;8.30;;
4112;SDS011;2070;51.042;7.056;2023-02-19T03:29:22;22.53;;;9.90;;
4112;SDS011;2070;51.042;7.056;2023-02-19T03:31:48;10.10;;;7.23;;
4112;SDS011;2070;51.042;7.056;2023-02-19T03:34:16;19.70;;;9.80;;
4112;SDS011;2070;51.042;7.056;2023-02-19T03:36:45;14.97;;;9.13;;
4112;SDS011;2070;51.042;7.056;2023-02-19T03:39:13;15.77;;;7.73;;
4112;SDS011;2070;51.042;7.056;2023-02-19T03:41:57;15.23;;;9.00;;
4112;SDS011;2070;51.042;7.056;2023-02-19T03:47:08;19.17;;;9.40;;
4112;SDS011;2070;51.042;7.056;2023-02-19T03:52:04;18.73;;;9.70;;
4112;SDS011;2070;51.042;7.056;2023-02-19T03:55:07;20.30;;;8.63;;
4112;SDS011;2070;51.042;7.056;2023-02-19T03:59:56;20.37;;;10.10;;
4112;SDS011;2070;51.042;7.056;2023-02-19T04:04:49;17.13;;;7.93;;
4112;SDS011;2070;51.042;7.056;2023-02-19T04:07:15;24.60;;;9.90;;
4112;SDS011;2070;51.042;7.056;2023-02-19T04:09:45;15.23;;;8.20;;
4112;SDS011;2070;51.042;7.056;2023-02-19T04:12:10;20.60;;;9.67;;
4112;SDS011;2070;51.042;7.056;2023-02-19T04:17:04;17.43;;;9.50;;
4112;SDS011;2070;51.042;7.056;2023-02-19T04:19:32;23.37;;;9.07;;
4112;SDS011;2070;51.042;7.056;2023-02-19T04:21:58;19.97;;;10.03;;
4112;SDS011;2070;51.042;7.056;2023-02-19T04:24:28;21.37;;;8.87;;
4112;SDS011;2070;51.042;7.056;2023-02-19T04:26:55;17.43;;;9.63;;
4112;SDS011;2070;51.042;7.056;2023-02-19T04:29:20;21.77;;;9.30;;
4112;SDS011;2070;51.042;7.056;2023-02-19T04:31:45;17.90;;;8.70;;
4112;SDS011;2070;51.042;7.056;2023-02-19T04:34:10;26.53;;;10.30;;
4112;SDS011;2070;51.042;7.056;2023-02-19T04:36:36;17.23;;;9.07;;
4112;SDS011;2070;51.042;7.056;2023-02-19T04:39:01;20.63;;;9.73;;
4112;SDS011;2070;51.042;7.056;2023-02-19T04:41:26;24.53;;;11.07;;
4112;SDS011;2070;51.042;7.056;2023-02-19T04:43:51;21.53;;;9.17;;
4112;SDS011;2070;51.042;7.056;2023-02-19T04:46:16;17.30;;;9.17;;
4112;SDS011;2070;51.042;7.056;2023-02-19T04:48:42;13.53;;;8.93;;
4112;SDS011;2070;51.042;7.056;2023-02-19T04:51:07;19.13;;;8.80;;
4112;SDS011;2070;51.042;7.056;2023-02-19T04:53:33;30.10;;;10.37;;
4112;SDS011;2070;51.042;7.056;2023-02-19T04:56:08;21.90;;;9.57;;
4112;SDS011;2070;51.042;7.056;2023-02-19T04:58:34;14.37;;;7.90;;
4112;SDS011;2070;51.042;7.056;2023-02-19T05:00:59;17.00;;;9.37;;
4112;SDS011;2070;51.042;7.056;2023-02-19T05:03:24;18.87;;;10.10;;
4112;SDS011;2070;51.042;7.056;2023-02-19T05:05:50;22.23;;;10.87;;
4112;SDS011;2070;51.042;7.056;2023-02-19T05:08:15;20.53;;;9.30;;
4112;SDS011;2070;51.042;7.056;2023-02-19T05:10:40;17.37;;;9.17;;
4112;SDS011;2070;51.042;7.056;2023-02-19T05:13:05;16.60;;;8.93;;
4112;SDS011;2070;51.042;7.056;2023-02-19T05:15:30;24.17;;;11.03;;
4112;SDS011;2070;51.042;7.056;2023-02-19T05:17:56;30.77;;;11.17;;
4112;SDS011;2070;51.042;7.056;2023-02-19T05:20:21;21.73;;;10.43;;
4112;SDS011;2070;51.042;7.056;2023-02-19T05:22:47;16.33;;;9.43;;
4112;SDS011;2070;51.042;7.056;2023-02-19T05:25:12;19.53;;;9.07;;
4112;SDS011;2070;51.042;7.056;2023-02-19T05:27:37;18.40;;;8.37;;
4112;SDS011;2070;51.042;7.056;2023-02-19T05:30:02;29.13;;;9.80;;
4112;SDS011;2070;51.042;7.056;2023-02-19T05:32:27;16.83;;;9.33;;
4112;SDS011;2070;51.042;7.056;2023-02-19T05:34:53;28.83;;;9.80;;
4112;SDS011;2070;51.042;7.056;2023-02-19T05:37:18;25.07;;;10.70;;
4112;SDS011;2070;51.042;7.056;2023-02-19T05:39:43;18.83;;;10.30;;
4112;SDS011;2070;51.042;7.056;2023-02-19T05:42:08;25.43;;;11.03;;
4112;SDS011;2070;51.042;7.056;2023-02-19T05:44:33;27.17;;;12.60;;
4112;SDS011;2070;51.042;7.056;2023-02-19T05:46:58;29.97;;;13.33;;
4112;SDS011;2070;51.042;7.056;2023-02-19T05:49:24;24.97;;;11.70;;
4112;SDS011;2070;51.042;7.056;2023-02-19T05:51:49;26.73;;;11.70;;
4112;SDS011;2070;51.042;7.056;2023-02-19T05:54:14;24.57;;;11.87;;
4112;SDS011;2070;51.042;7.056;2023-02-19T05:56:40;38.00;;;14.80;;
4112;SDS011;2070;51.042;7.056;2023-02-19T05:59:15;26.37;;;12.77;;
4112;SDS011;2070;51.042;7.056;2023-02-19T06:01:41;32.67;;;16.03;;
4112;SDS011;2070;51.042;7.056;2023-02-19T06:04:07;36.00;;;14.00;;
4112;SDS011;2070;51.042;7.056;2023-02-19T06:06:32;29.37;;;12.50;;
4112;SDS011;2070;51.042;7.056;2023-02-19T06:08:58;37.57;;;14.17;;
4112;SDS011;2070;51.042;7.056;2023-02-19T06:11:23;24.33;;;12.00;;
4112;SDS011;2070;51.042;7.056;2023-02-19T06:13:49;25.40;;;13.47;;
4112;SDS011;2070;51.042;7.056;2023-02-19T06:16:14;34.80;;;11.47;;
4112;SDS011;2070;51.042;7.056;2023-02-19T06:18:42;30.00;;;12.77;;
4112;SDS011;2070;51.042;7.056;2023-02-19T06:21:08;24.30;;;13.87;;
4112;SDS011;2070;51.042;7.056;2023-02-19T06:23:33;23.30;;;13.10;;
4112;SDS011;2070;51.042;7.056;2023-02-19T06:28:42;24.70;;;13.10;;
4112;SDS011;2070;51.042;7.056;2023-02-19T06:31:08;33.23;;;12.60;;
4112;SDS011;2070;51.042;7.056;2023-02-19T06:33:33;22.70;;;12.07;;
4112;SDS011;2070;51.042;7.056;2023-02-19T06:35:59;28.00;;;14.27;;
4112;SDS011;2070;51.042;7.056;2023-02-19T06:38:25;24.70;;;12.70;;
4112;SDS011;2070;51.042;7.056;2023-02-19T06:40:50;35.93;;;16.50;;
4112;SDS011;2070;51.042;7.056;2023-02-19T06:43:15;26.87;;;14.10;;
4112;SDS011;2070;51.042;7.056;2023-02-19T06:45:40;26.20;;;12.57;;
4112;SDS011;2070;51.042;7.056;2023-02-19T06:48:06;29.10;;;12.67;;
4112;SDS011;2070;51.042;7.056;2023-02-19T06:50:31;37.10;;;12.33;;
4112;SDS011;2070;51.042;7.056;2023-02-19T06:52:56;27.13;;;11.17;;
4112;SDS011;2070;51.042;7.056;2023-02-19T06:55:21;27.10;;;13.20;;
4112;SDS011;2070;51.042;7.056;2023-02-19T06:57:46;22.87;;;12.40;;
4112;SDS011;2070;51.042;7.056;2023-02-19T07:00:12;24.13;;;10.90;;
4112;SDS011;2070;51.042;7.056;2023-02-19T07:02:37;25.93;;;10.73;;
4112;SDS011;2070;51.042;7.056;2023-02-19T07:05:02;26.27;;;11.90;;
4112;SDS011;2070;51.042;7.056;2023-02-19T07:07:27;24.83;;;12.60;;
4112;SDS011;2070;51.042;7.056;2023-02-19T07:09:52;24.37;;;12.30;;
4112;SDS011;2070;51.042;7.056;2023-02-19T07:12:18;22.60;;;11.67;;
4112;SDS011;2070;51.042;7.056;2023-02-19T07:14:43;22.13;;;11.00;;
4112;SDS011;2070;51.042;7.056;2023-02-19T07:17:08;24.37;;;12.40;;
4112;SDS011;2070;51.042;7.056;2023-02-19T07:19:33;25.20;;;10.93;;
4112;SDS011;2070;51.042;7.056;2023-02-19T07:21:58;21.37;;;10.10;;
4112;SDS011;2070;51.042;7.056;2023-02-19T07:24:24;21.67;;;11.20;;
4112;SDS011;2070;51.042;7.056;2023-02-19T07:26:49;22.97;;;9.43;;
4112;SDS011;2070;51.042;7.056;2023-02-19T07:29:14;23.33;;;10.50;;
4112;SDS011;2070;51.042;7.056;2023-02-19T07:31:39;21.07;;;9.70;;
4112;SDS011;2070;51.042;7.056;2023-02-19T07:34:05;20.10;;;10.27;;
4112;SDS011;2070;51.042;7.056;2023-02-19T07:36:30;29.20;;;12.20;;
4112;SDS011;2070;51.042;7.056;2023-02-19T07:38:56;21.53;;;9.70;;
4112;SDS011;2070;51.042;7.056;2023-02-19T07:41:22;15.80;;;9.13;;
4112;SDS011;2070;51.042;7.056;2023-02-19T07:43:47;19.23;;;9.20;;
4112;SDS011;2070;51.042;7.056;2023-02-19T07:46:13;23.70;;;10.00;;
4112;SDS011;2070;51.042;7.056;2023-02-19T07:48:38;29.77;;;10.00;;
4112;SDS011;2070;51.042;7.056;2023-02-19T07:51:04;20.33;;;9.27;;
4112;SDS011;2070;51.042;7.056;2023-02-19T07:53:31;23.73;;;9.40;;
4112;SDS011;2070;51.042;7.056;2023-02-19T07:56:00;20.00;;;9.37;;
4112;SDS011;2070;51.042;7.056;2023-02-19T07:58:26;16.90;;;8.13;;
4112;SDS011;2070;51.042;7.056;2023-02-19T08:00:51;23.70;;;8.70;;
4112;SDS011;2070;51.042;7.056;2023-02-19T08:03:16;19.10;;;9.27;;
4112;SDS011;2070;51.042;7.056;2023-02-19T08:05:42;29.60;;;9.53;;
4112;SDS011;2070;51.042;7.056;2023-02-19T08:08:08;14.00;;;8.77;;
4112;SDS011;2070;51.042;7.056;2023-02-19T08:10:33;23.97;;;8.20;;
4112;SDS011;2070;51.042;7.056;2023-02-19T08:13:17;13.17;;;6.87;;
4112;SDS011;2070;51.042;7.056;2023-02-19T08:18:27;26.43;;;7.67;;
4112;SDS011;2070;51.042;7.056;2023-02-19T08:20:55;24.67;;;8.70;;
4112;SDS011;2070;51.042;7.056;2023-02-19T08:23:21;19.50;;;7.70;;
4112;SDS011;2070;51.042;7.056;2023-02-19T08:25:47;15.33;;;7.50;;
4112;SDS011;2070;51.042;7.056;2023-02-19T08:28:12;12.90;;;6.87;;
4112;SDS011;2070;51.042;7.056;2023-02-19T08:30:38;18.20;;;8.87;;
4112;SDS011;2070;51.042;7.056;2023-02-19T08:33:05;16.87;;;10.23;;
4112;SDS011;2070;51.042;7.056;2023-02-19T08:35:30;18.60;;;7.43;;
4112;SDS011;2070;51.042;7.056;2023-02-19T08:37:56;14.47;;;7.40;;
4112;SDS011;2070;51.042;7.056;2023-02-19T08:40:21;25.07;;;9.00;;
4112;SDS011;2070;51.042;7.056;2023-02-19T08:42:46;21.13;;;7.83;;
4112;SDS011;2070;51.042;7.056;2023-02-19T08:45:12;23.00;;;8.70;;
4112;SDS011;2070;51.042;7.056;2023-02-19T08:47:38;24.40;;;8.13;;
4112;SDS011;2070;51.042;7.056;2023-02-19T08:50:04;17.67;;;7.27;;
4112;SDS011;2070;51.042;7.056;2023-02-19T08:52:29;21.13;;;8.57;;
4112;SDS011;2070;51.042;7.056;2023-02-19T08:54:55;15.97;;;6.93;;
4112;SDS011;2070;51.042;7.056;2023-02-19T08:57:20;17.00;;;7.60;;
4112;SDS011;2070;51.042;7.056;2023-02-19T08:59:45;15.03;;;6.97;;
4112;SDS011;2070;51.042;7.056;2023-02-19T09:02:10;14.83;;;7.90;;
4112;SDS011;2070;51.042;7.056;2023-02-19T09:04:36;15.30;;;8.10;;
4112;SDS011;2070;51.042;7.056;2023-02-19T09:07:02;19.70;;;7.70;;
4112;SDS011;2070;51.042;7.056;2023-02-19T09:09:31;20.80;;;10.13;;
4112;SDS011;2070;51.042;7.056;2023-02-19T09:11:56;10.80;;;6.20;;
4112;SDS011;2070;51.042;7.056;2023-02-19T09:14:21;17.40;;;7.60;;
4112;SDS011;2070;51.042;7.056;2023-02-19T09:16:47;20.17;;;6.90;;
4112;SDS011;2070;51.042;7.056;2023-02-19T09:19:12;14.93;;;7.27;;
4112;SDS011;2070;51.042;7.056;2023-02-19T09:21:37;12.20;;;5.37;;
4112;SDS011;2070;51.042;7.056;2023-02-19T09:24:02;19.60;;;6.70;;
4112;SDS011;2070;51.042;7.056;2023-02-19T09:26:27;11.17;;;5.37;;
4112;SDS011;2070;51.042;7.056;2023-02-19T09:28:53;22.23;;;5.73;;
4112;SDS011;2070;51.042;7.056;2023-02-19T09:31:18;12.30;;;7.03;;
4112;SDS011;2070;51.042;7.056;2023-02-19T09:33:44;23.57;;;7.57;;
4112;SDS011;2070;51.042;7.056;2023-02-19T09:36:09;16.63;;;6.93;;
4112;SDS011;2070;51.042;7.056;2023-02-19T09:38:34;8.67;;;5.53;;
4112;SDS011;2070;51.042;7.056;2023-02-19T09:41:04;20.83;;;6.63;;
4112;SDS011;2070;51.042;7.056;2023-02-19T09:43:30;11.63;;;6.10;;
4112;SDS011;2070;51.042;7.056;2023-02-19T09:46:02;20.93;;;5.60;;
4112;SDS011;2070;51.042;7.056;2023-02-19T09:48:28;14.20;;;6.10;;
4112;SDS011;2070;51.042;7.056;2023-02-19T09:50:53;16.73;;;5.00;;
4112;SDS011;2070;51.042;7.056;2023-02-19T09:53:20;12.90;;;5.30;;
4112;SDS011;2070;51.042;7.056;2023-02-19T09:55:47;19.73;;;7.30;;
4112;SDS011;2070;51.042;7.056;2023-02-19T10:00:38;5.93;;;4.90;;
4112;SDS011;2070;51.042;7.056;2023-02-19T10:03:04;20.67;;;5.93;;
4112;SDS011;2070;51.042;7.056;2023-02-19T10:05:31;11.97;;;5.50;;
4112;SDS011;2070;51.042;7.056;2023-02-19T10:07:57;20.30;;;5.67;;
4112;SDS011;2070;51.042;7.056;2023-02-19T10:10:26;14.40;;;6.30;;
4112;SDS011;2070;51.042;7.056;2023-02-19T10:13:01;12.63;;;5.10;;
4112;SDS011;2070;51.042;7.056;2023-02-19T10:15:35;10.20;;;5.87;;
4112;SDS011;2070;51.042;7.056;2023-02-19T10:18:02;8.20;;;3.30;;
4112;SDS011;2070;51.042;7.056;2023-02-19T10:20:28;8.17;;;4.23;;
4112;SDS011;2070;51.042;7.056;2023-02-19T10:22:57;8.23;;;3.93;;
4112;SDS011;2070;51.042;7.056;2023-02-19T10:25:23;12.07;;;3.93;;
4112;SDS011;2070;51.042;7.056;2023-02-19T10:27:48;8.90;;;4.70;;
4112;SDS011;2070;51.042;7.056;2023-02-19T10:30:17;13.97;;;4.40;;
4112;SDS011;2070;51.042;7.056;2023-02-19T10:32:58;9.43;;;4.60;;
4112;SDS011;2070;51.042;7.056;2023-02-19T10:35:24;8.57;;;5.03;;
4112;SDS011;2070;51.042;7.056;2023-02-19T10:37:49;8.57;;;3.80;;
4112;SDS011;2070;51.042;7.056;2023-02-19T10:40:16;14.67;;;4.50;;
4112;SDS011;2070;51.042;7.056;2023-02-19T10:42:46;10.07;;;5.50;;
4112;SDS011;2070;51.042;7.056;2023-02-19T10:45:16;9.03;;;4.47;;
4112;SDS011;2070;51.042;7.056;2023-02-19T10:47:44;8.40;;;4.20;;
4112;SDS011;2070;51.042;7.056;2023-02-19T10:50:24;8.27;;;3.93;;
4112;SDS011;2070;51.042;7.056;2023-02-19T10:52:51;17.03;;;4.70;;
4112;SDS011;2070;51.042;7.056;2023-02-19T10:57:52;6.93;;;5.40;;
4112;SDS011;2070;51.042;7.056;2023-02-19T11:02:42;9.55;;;4.07;;
4112;SDS011;2070;51.042;7.056;2023-02-19T11:07:34;11.90;;;5.00;;
4112;SDS011;2070;51.042;7.056;2023-02-19T11:10:00;11.60;;;4.07;;
4112;SDS011;2070;51.042;7.056;2023-02-19T11:12:27;13.07;;;4.60;;
4112;SDS011;2070;51.042;7.056;2023-02-19T11:14:52;9.30;;;4.23;;
4112;SDS011;2070;51.042;7.056;2023-02-19T11:17:24;5.63;;;3.30;;
4112;SDS011;2070;51.042;7.056;2023-02-19T11:19:57;9.27;;;4.87;;
4112;SDS011;2070;51.042;7.056;2023-02-19T11:22:34;7.00;;;3.50;;
4112;SDS011;2070;51.042;7.056;2023-02-19T11:35:49;7.13;;;2.90;;
4112;SDS011;2070;51.042;7.056;2023-02-19T11:38:16;7.53;;;3.60;;
4112;SDS011;2070;51.042;7.056;2023-02-19T11:40:43;9.63;;;4.10;;
4112;SDS011;2070;51.042;7.056;2023-02-19T11:53:45;6.00;;;3.70;;
4112;SDS011;2070;51.042;7.056;2023-02-19T11:56:18;5.37;;;3.30;;
4112;SDS011;2070;51.042;7.056;2023-02-19T11:58:55;4.40;;;3.20;;
4112;SDS011;2070;51.042;7.056;2023-02-19T12:04:01;5.00;;;3.30;;
4112;SDS011;2070;51.042;7.056;2023-02-19T12:06:40;5.17;;;4.00;;
4112;SDS011;2070;51.042;7.056;2023-02-19T12:12:04;4.43;;;4.00;;
4112;SDS011;2070;51.042;7.056;2023-02-19T12:35:14;7.70;;;4.53;;
4112;SDS011;2070;51.042;7.056;2023-02-19T12:38:02;9.60;;;5.37;;
4112;SDS011;2070;51.042;7.056;2023-02-19T12:40:49;6.67;;;3.77;;
4112;SDS011;2070;51.042;7.056;2023-02-19T12:43:19;6.73;;;3.73;;
4112;SDS011;2070;51.042;7.056;2023-02-19T12:48:35;7.87;;;3.80;;
4112;SDS011;2070;51.042;7.056;2023-02-19T12:51:09;5.10;;;3.27;;
4112;SDS011;2070;51.042;7.056;2023-02-19T12:56:03;8.90;;;3.08;;
4112;SDS011;2070;51.042;7.056;2023-02-19T12:58:31;7.80;;;4.13;;
4112;SDS011;2070;51.042;7.056;2023-02-19T13:00:59;9.20;;;3.90;;
4112;SDS011;2070;51.042;7.056;2023-02-19T13:03:29;12.93;;;4.27;;
4112;SDS011;2070;51.042;7.056;2023-02-19T13:06:20;5.63;;;3.80;;
4112;SDS011;2070;51.042;7.056;2023-02-19T13:08:47;5.60;;;4.23;;
4112;SDS011;2070;51.042;7.056;2023-02-19T13:11:15;10.33;;;4.77;;
4112;SDS011;2070;51.042;7.056;2023-02-19T13:13:42;29.90;;;5.03;;
4112;SDS011;2070;51.042;7.056;2023-02-19T13:16:15;8.87;;;4.47;;
4112;SDS011;2070;51.042;7.056;2023-02-19T13:18:43;12.40;;;4.17;;
4112;SDS011;2070;51.042;7.056;2023-02-19T13:21:10;11.67;;;4.97;;
4112;SDS011;2070;51.042;7.056;2023-02-19T13:23:36;8.63;;;5.20;;
4112;SDS011;2070;51.042;7.056;2023-02-19T13:29:04;5.57;;;3.80;;
4112;SDS011;2070;51.042;7.056;2023-02-19T13:31:50;15.63;;;4.30;;
4112;SDS011;2070;51.042;7.056;2023-02-19T13:34:34;3.40;;;2.93;;
4112;SDS011;2070;51.042;7.056;2023-02-19T13:37:03;12.93;;;3.47;;
4112;SDS011;2070;51.042;7.056;2023-02-19T13:39:28;6.23;;;2.70;;
4112;SDS011;2070;51.042;7.056;2023-02-19T13:41:55;8.27;;;2.97;;
4112;SDS011;2070;51.042;7.056;2023-02-19T13:44:22;6.00;;;2.47;;
4112;SDS011;2070;51.042;7.056;2023-02-19T13:46:49;7.13;;;2.30;;
4112;SDS011;2070;51.042;7.056;2023-02-19T13:49:22;5.30;;;3.27;;
4112;SDS011;2070;51.042;7.056;2023-02-19T13:51:51;4.07;;;2.80;;
4112;SDS011;2070;51.042;7.056;2023-02-19T13:54:21;5.93;;;3.57;;
4112;SDS011;2070;51.042;7.056;2023-02-19T13:56:47;9.43;;;2.33;;
4112;SDS011;2070;51.042;7.056;2023-02-19T13:59:24;3.53;;;2.83;;
4112;SDS011;2070;51.042;7.056;2023-02-19T14:04:21;14.60;;;7.80;;
4112;SDS011;2070;51.042;7.056;2023-02-19T14:12:03;3.70;;;2.60;;
4112;SDS011;2070;51.042;7.056;2023-02-19T14:14:35;5.03;;;3.50;;
4112;SDS011;2070;51.042;7.056;2023-02-19T14:24:54;8.90;;;5.40;;
4112;SDS011;2070;51.042;7.056;2023-02-19T14:27:20;8.97;;;4.10;;
4112;SDS011;2070;51.042;7.056;2023-02-19T14:29:46;11.80;;;4.97;;
4112;SDS011;2070;51.042;7.056;2023-02-19T14:32:14;6.07;;;4.30;;
4112;SDS011;2070;51.042;7.056;2023-02-19T14:34:40;9.93;;;5.90;;
4112;SDS011;2070;51.042;7.056;2023-02-19T14:37:08;7.17;;;5.10;;
4112;SDS011;2070;51.042;7.056;2023-02-19T14:39:38;8.50;;;4.50;;
4112;SDS011;2070;51.042;7.056;2023-02-19T14:42:06;11.60;;;5.20;;
4112;SDS011;2070;51.042;7.056;2023-02-19T14:44:38;14.33;;;5.03;;
4112;SDS011;2070;51.042;7.056;2023-02-19T14:47:05;6.40;;;4.70;;
4112;SDS011;2070;51.042;7.056;2023-02-19T14:49:38;14.23;;;5.80;;
4112;SDS011;2070;51.042;7.056;2023-02-19T14:52:07;11.73;;;4.73;;
4112;SDS011;2070;51.042;7.056;2023-02-19T14:54:39;8.43;;;4.07;;
4112;SDS011;2070;51.042;7.056;2023-02-19T14:57:06;19.03;;;5.50;;
4112;SDS011;2070;51.042;7.056;2023-02-19T14:59:35;8.67;;;4.93;;
4112;SDS011;2070;51.042;7.056;2023-02-19T15:02:02;12.73;;;4.37;;
4112;SDS011;2070;51.042;7.056;2023-02-19T15:04:28;6.17;;;4.17;;
4112;SDS011;2070;51.042;7.056;2023-02-19T15:06:55;5.33;;;4.03;;
4112;SDS011;2070;51.042;7.056;2023-02-19T15:09:23;6.47;;;4.50;;
4112;SDS011;2070;51.042;7.056;2023-02-19T15:11:49;16.07;;;6.07;;
4112;SDS011;2070;51.042;7.056;2023-02-19T15:14:18;9.83;;;6.80;;
4112;SDS011;2070;51.042;7.056;2023-02-19T15:16:45;16.83;;;7.37;;
4112;SDS011;2070;51.042;7.056;2023-02-19T15:19:11;7.30;;;5.53;;
4112;SDS011;2070;51.042;7.056;2023-02-19T15:21:38;9.97;;;6.70;;
4112;SDS011;2070;51.042;7.056;2023-02-19T15:24:04;12.10;;;6.00;;
4112;SDS011;2070;51.042;7.056;2023-02-19T15:26:33;13.00;;;7.20;;
4112;SDS011;2070;51.042;7.056;2023-02-19T15:29:00;13.70;;;7.23;;
4112;SDS011;2070;51.042;7.056;2023-02-19T15:31:26;15.50;;;8.37;;
4112;SDS011;2070;51.042;7.056;2023-02-19T15:33:51;13.00;;;8.03;;
4112;SDS011;2070;51.042;7.056;2023-02-19T15:36:22;10.40;;;7.10;;
4112;SDS011;2070;51.042;7.056;2023-02-19T15:38:51;23.10;;;7.90;;
4112;SDS011;2070;51.042;7.056;2023-02-19T15:41:18;14.13;;;7.23;;
4112;SDS011;2070;51.042;7.056;2023-02-19T15:43:52;21.40;;;8.80;;
4112;SDS011;2070;51.042;7.056;2023-02-19T15:46:20;12.63;;;7.20;;
4112;SDS011;2070;51.042;7.056;2023-02-19T15:51:31;11.20;;;7.10;;
4112;SDS011;2070;51.042;7.056;2023-02-19T15:53:59;13.97;;;7.97;;
4112;SDS011;2070;51.042;7.056;2023-02-19T15:56:31;19.73;;;9.27;;
4112;SDS011;2070;51.042;7.056;2023-02-19T15:59:03;14.97;;;7.60;;
4112;SDS011;2070;51.042;7.056;2023-02-19T16:01:36;13.10;;;7.87;;
4112;SDS011;2070;51.042;7.056;2023-02-19T16:04:01;11.67;;;7.30;;
4112;SDS011;2070;51.042;7.056;2023-02-19T16:06:27;26.83;;;10.90;;
4112;SDS011;2070;51.042;7.056;2023-02-19T16:09:05;16.53;;;9.20;;
4112;SDS011;2070;51.042;7.056;2023-02-19T16:14:27;10.40;;;6.67;;
4112;SDS011;2070;51.042;7.056;2023-02-19T16:16:54;23.17;;;7.70;;
4112;SDS011;2070;51.042;7.056;2023-02-19T16:19:20;22.60;;;7.60;;
4112;SDS011;2070;51.042;7.056;2023-02-19T16:21:45;20.03;;;8.80;;
4112;SDS011;2070;51.042;7.056;2023-02-19T16:24:12;14.60;;;8.53;;
4112;SDS011;2070;51.042;7.056;2023-02-19T16:26:41;15.77;;;8.30;;
4112;SDS011;2070;51.042;7.056;2023-02-19T16:29:17;21.47;;;8.60;;
4112;SDS011;2070;51.042;7.056;2023-02-19T16:31:47;13.40;;;9.00;;
4112;SDS011;2070;51.042;7.056;2023-02-19T16:34:17;15.63;;;7.77;;
4112;SDS011;2070;51.042;7.056;2023-02-19T16:36:42;25.73;;;11.63;;
4112;SDS011;2070;51.042;7.056;2023-02-19T16:39:13;22.70;;;10.40;;
4112;SDS011;2070;51.042;7.056;2023-02-19T16:46:44;22.10;;;9.47;;
4112;SDS011;2070;51.042;7.056;2023-02-19T16:49:09;23.13;;;9.07;;
4112;SDS011;2070;51.042;7.056;2023-02-19T16:51:35;29.43;;;9.87;;
4112;SDS011;2070;51.042;7.056;2023-02-19T16:54:01;14.70;;;8.07;;
4112;SDS011;2070;51.042;7.056;2023-02-19T16:56:26;16.60;;;7.40;;
4112;SDS011;2070;51.042;7.056;2023-02-19T16:58:51;20.93;;;9.80;;
4112;SDS011;2070;51.042;7.056;2023-02-19T17:01:16;11.80;;;7.93;;
4112;SDS011;2070;51.042;7.056;2023-02-19T17:03:42;27.33;;;9.77;;
4112;SDS011;2070;51.042;7.056;2023-02-19T17:06:08;17.63;;;9.73;;
4112;SDS011;2070;51.042;7.056;2023-02-19T17:08:34;21.10;;;10.03;;